from: Jan 18 2020 6:00 am until: Jan 19 2020 1:00 am Winter Weather Advisory level: Minor
Minimal threat to life or property - Responsive action SHOULD be taken soon (within next hour)
...WINTER WEATHER ADVISORY IN EFFECT FROM 6 AM SATURDAY TO 1 AM EST SUNDAY... ...WINTER STORM WATCH IN EFFECT FROM LATE SATURDAY NIGHT THROUGH MONDAY MORNING... * WHAT...For the Winter Weather Advisory, snow and sleet expected. Total snow accumulations of 2 to 4 inches Saturday and Saturday
from: Jan 18 2020 7:00 pm until: Jan 19 2020 1:00 pm Lakeshore Flood Watch level: Moderate
Possible threat to life or property - Responsive action SHOULD be taken in the near future
...LAKESHORE FLOOD WATCH IN EFFECT FROM SATURDAY EVENING THROUGH SUNDAY AFTERNOON... * WHAT...Lakeshore flooding possible. * WHERE...Lake Erie shore of Erie and Chautauqua counties. * WHEN...From Saturday evening through Sunday afternoon. * IMPACTS...Strong southwest winds may result in a rapid rise in
from: Jan 19 2020 1:00 am until: Jan 20 2020 7:00 am Winter Storm Watch level: Moderate
Possible threat to life or property - Responsive action SHOULD be taken in the near future
...WINTER WEATHER ADVISORY IN EFFECT FROM 6 AM SATURDAY TO 1 AM EST SUNDAY... ...WINTER STORM WATCH IN EFFECT FROM LATE SATURDAY NIGHT THROUGH MONDAY MORNING... * WHAT...For the Winter Weather Advisory, snow and sleet expected. Total snow accumulations of 2 to 4 inches Saturday and Saturday


For GOD so loved the world that HE gave HIS one and only SON, that whoever believes in HIM shall not perish but have eternal life.


Thunder radar more information blitzortung!


Rain radar more information rain snow radar



Select another period ( hide this area )

Units Period Custom range Directly to
Metric English Both
Daily Weekly Monthly Yearly
use both date-selectors for a custom range
previous Day
With this date

WeatherUnderground graphs for this period ( click here )


Daily Summary for Friday Jan 17 2020
Time Temp. ( °C ) Dew pt. ( °C ) Wind ( km/h ) from Gust ( km/h ) Pressure ( hPa ) Humid.( % ) Rainrate ( cm ) Solar ( W/m2 )
High-6,4 -10,1 24,6 North ( 345/932 ) 35,2 1046,3 79 - 638
Average-9,1 -12,8 8,7 North #61/171 13,4 1042,9 74 - 237 #79/171
Low-10,4 -13,9 0,2   1,9 1036,1 67 -  
Daily Tabular details for Friday Jan 17 2020
Time Temp. ( °C ) Dew pt. ( °C ) Wind ( km/h ) from Gust ( km/h ) Pressure ( hPa ) Humid.( % ) Rainrate ( cm ) Solar ( W/m2 )
00:00 -6,4 -10,1 10,9 North 19,3 1036,1 75 - -
00:05 -6,4 -10,3 15,9 North 24,1 1036,1 74 - -
00:10 -6,4 -10,5 11,3 NNW 19,3 1036,5 73 - -
00:15 -6,5 -10,6 15,4 North 25,9 1036,8 73 - -
00:20 -6,7 -10,9 19,0 NW 31,5 1036,8 72 - -
00:25 -6,8 -11,1 22,0 North 31,5 1037,1 72 - -
00:30 -7,1 -11,4 24,3 NW 31,5 1036,8 71 - -
00:35 -7,2 -11,6 22,0 NNE 31,5 1037,1 71 - -
00:40 -7,3 -11,4 19,8 NNW 22,2 1037,1 72 - -
00:45 -7,3 -11,5 24,6 NNE 35,2 1037,1 72 - -
00:50 -7,5 -11,8 19,8 North 29,6 1037,5 71 - -
00:55 -7,6 -11,7 18,2 NNW 24,1 1037,5 72 - -
01:00 -7,6 -11,8 20,8 NW 24,1 1037,8 72 - -
01:05 -7,7 -11,8 23,0 NW 31,5 1037,8 72 - -
01:10 -7,7 -11,7 17,9 NW 22,2 1037,8 73 - -
01:15 -7,7 -11,7 7,9 NW 14,8 1038,1 73 - -
01:20 -7,6 -11,4 10,5 North 16,7 1038,1 74 - -
01:25 -7,6 -11,4 17,4 NNE 29,0 1038,5 74 - -
01:30 -7,7 -11,5 11,4 NNE 14,8 1038,5 74 - -
01:35 -7,7 -11,6 17,2 NW 27,8 1038,8 74 - -
01:40 -7,8 -11,5 14,2 NNW 20,4 1038,8 75 - -
01:45 -7,9 -11,6 19,0 NNW 24,1 1038,8 75 - -
01:50 -8,1 -11,7 10,9 NNE 20,4 1039,2 75 - -
01:55 -8,1 -11,9 14,6 NW 18,5 1039,2 74 - -
02:00 -8,3 -12,1 19,2 NNW 29,6 1039,2 74 - -
02:05 -8,3 -12,3 17,1 NNE 22,2 1039,5 73 - -
02:10 -8,4 -12,4 9,3 North 18,5 1039,5 73 - -
02:15 -8,5 -12,5 10,8 NNW 20,4 1039,5 73 - -
02:20 -8,6 -12,6 9,5 NNW 18,5 1039,5 73 - -
02:25 -8,6 -12,6 9,8 North 18,5 1039,8 73 - -
02:30 -8,7 -12,6 4,0 NW 5,6 1039,8 73 - -
02:35 -8,7 -12,6 9,8 NW 16,7 1040,2 73 - -
02:40 -8,7 -12,7 7,9 NNW 9,3 1040,2 73 - -
02:45 -8,7 -12,7 7,2 NW 7,4 1040,5 73 - -
02:50 -8,8 -12,7 6,4 NNE 13,0 1040,5 73 - -
02:55 -8,8 -12,7 6,3 North 8,0 1040,5 73 - -
03:00 -8,8 -12,7 15,4 North 20,4 1040,5 73 - -
03:05 -8,8 -12,8 8,2 WNW 14,8 1040,5 73 - -
03:10 -8,9 -12,8 10,6 North 18,5 1040,5 73 - -
03:15 -8,9 -12,9 16,7 NNW 20,4 1040,5 73 - -
03:20 -9,0 -12,9 6,4 NNW 9,7 1040,9 73 - -
03:25 -9,0 -12,9 7,1 NW 13,0 1040,9 73 - -
03:30 -9,1 -13,0 11,1 NW 20,4 1040,9 73 - -
03:35 -9,1 -13,1 11,6 NNE 16,7 1040,9 73 - -
03:40 -9,2 -13,1 10,9 North 18,5 1041,2 73 - -
03:45 -9,2 -13,0 15,3 North 18,5 1041,2 74 - -
03:50 -9,3 -13,1 7,2 North 14,5 1041,2 74 - -
03:55 -9,3 -13,1 6,8 NNW 13,0 1041,2 74 - -
04:00 -9,4 -13,2 7,2 NNW 9,3 1041,2 74 - -
04:05 -9,4 -13,1 9,8 North 14,8 1041,2 75 - -
04:10 -9,5 -13,1 10,0 North 13,0 1041,2 75 - -
04:15 -9,5 -13,1 1,8 NNW 5,6 1041,5 75 - -
04:20 -9,6 -13,2 5,5 NNW 7,4 1041,5 75 - -
04:25 -9,6 -13,0 9,5 North 14,8 1041,5 76 - -
04:30 -9,6 -13,0 6,1 NW 7,4 1041,9 76 - -
04:35 -9,6 -13,0 6,1 North 7,4 1041,9 76 - -
04:40 -9,6 -13,0 6,6 North 7,4 1041,9 76 - -
04:45 -9,6 -12,8 7,2 North 13,0 1041,9 77 - -
04:50 -9,6 -12,8 6,8 NNW 9,7 1041,9 77 - -
04:55 -9,6 -12,8 2,6 NNE 3,7 1041,9 77 - -
05:00 -9,6 -12,8 5,0 NNE 8,0 1041,9 77 - -
05:05 -9,6 -12,8 5,5 North 7,4 1041,9 77 - -
05:10 -9,6 -12,9 8,4 NNW 13,0 1042,2 77 - -
05:15 -9,6 -12,7 4,8 NNE 7,4 1042,2 78 - -
05:20 -9,6 -12,7 5,8 NNE 7,4 1042,2 78 - -
05:25 -9,6 -12,7 5,6 NNE 7,4 1042,2 78 - -
05:30 -9,7 -12,8 6,1 NNE 11,1 1042,2 78 - -
05:35 -9,7 -12,8 2,4 North 3,7 1042,2 78 - -
05:40 -9,7 -12,8 9,2 North 14,8 1042,5 78 - -
05:45 -9,7 -12,8 8,7 North 14,8 1042,5 78 - -
05:50 -9,7 -12,7 13,7 North 20,4 1042,9 79 - -
05:55 -9,7 -12,8 6,0 North 9,3 1042,9 78 - -
06:00 -9,7 -12,8 9,0 North 14,8 1043,2 78 - -
06:05 -9,7 -12,8 10,9 North 19,3 1043,2 78 - -
06:10 -9,7 -12,8 14,6 North 18,5 1043,2 78 - -
06:15 -9,7 -12,9 9,3 NE 16,7 1043,2 77 - -
06:20 -9,7 -13,0 9,5 North 14,8 1043,6 77 - -
06:25 -9,8 -13,1 8,7 North 13,0 1043,6 77 - -
06:30 -9,8 -13,1 10,8 NNE 16,7 1043,9 77 - -
06:35 -9,8 -13,1 7,1 North 11,1 1043,9 77 - -
06:40 -9,9 -13,2 7,7 North 13,0 1043,9 77 - -
06:45 -9,9 -13,2 9,2 NNW 13,0 1044,2 77 - -
06:50 -9,9 -13,2 12,9 North 22,2 1044,2 77 - -
06:55 -10,0 -13,3 6,1 North 9,3 1044,2 77 - -
07:00 -10,1 -13,3 12,1 NNW 18,5 1044,2 77 - -
07:05 -10,1 -13,4 9,3 North 13,0 1044,6 77 - -
07:10 -10,1 -13,4 4,5 North 7,4 1044,6 77 - -
07:15 -10,2 -13,4 9,2 NNW 13,0 1044,6 77 - -
07:20 -10,2 -13,4 5,6 North 7,4 1044,6 77 - -
07:25 -10,2 -13,3 6,3 North 13,0 1044,6 78 - -
07:30 -10,2 -13,3 8,2 NNW 9,3 1044,9 78 - -
07:35 -10,2 -13,3 6,6 North 12,9 1044,9 78 - -
07:40 -10,2 -13,3 12,9 NNE 20,4 1044,9 78 - 5
07:45 -10,2 -13,3 6,4 North 18,5 1044,9 78 - 5
07:50 -10,2 -13,3 16,4 NW 18,5 1044,9 78 - 7
07:55 -10,3 -13,6 16,4 North 25,9 1044,9 77 - 11
08:00 -10,3 -13,6 6,4 North 13,0 1044,9 77 - 14
08:05 -10,3 -13,6 11,3 NW 18,5 1045,3 77 - 18
08:10 -10,4 -13,8 13,0 NNW 27,8 1045,3 76 - 26
08:15 -10,4 -13,8 17,2 North 22,2 1045,3 76 - 21
08:20 -10,4 -13,8 13,5 NNE 18,5 1045,3 76 - 25
08:25 -10,4 -13,9 12,1 North 16,7 1045,3 76 - 84
08:30 -10,3 -13,8 13,5 NE 18,5 1045,3 76 - 100
08:35 -10,3 -13,7 6,3 NE 11,1 1045,3 76 - 118
08:40 -10,2 -13,7 9,2 NE 14,8 1045,3 76 - 141
08:45 -10,1 -13,5 6,9 North 13,0 1045,3 76 - 123
08:50 -10,0 -13,4 7,4 NNE 13,0 1045,3 76 - 172
08:55 -9,9 -13,4 8,7 North 13,0 1045,3 76 - 216
09:00 -9,9 -13,4 12,2 NNW 20,9 1045,6 76 - 90
09:05 -9,9 -13,3 5,1 NNE 9,3 1045,6 76 - 179
09:10 -9,9 -13,3 8,2 NW 13,0 1045,6 76 - 109
09:15 -9,9 -13,4 9,3 North 16,7 1045,6 76 - 206
09:20 -9,9 -13,3 8,9 NW 14,8 1045,6 76 - 109
09:25 -9,9 -13,4 9,8 North 14,8 1045,6 76 - 134
09:30 -9,8 -13,3 3,9 NNE 7,4 1045,6 76 - 104
09:35 -9,7 -13,0 5,6 NNW 7,4 1045,6 77 - 132
09:40 -9,7 -13,0 10,1 WNW 14,8 1045,6 77 - 105
09:45 -9,8 -13,3 3,4 NW 5,6 1045,6 76 - 76
09:50 -9,9 -13,4 7,2 NNW 11,1 1045,9 76 - 67
09:55 -10,1 -13,5 9,8 NNW 16,7 1045,9 76 - 67
10:00 -10,1 -13,7 4,2 North 5,6 1045,9 75 - 181
10:05 -9,8 -13,4 5,6 North 7,4 1045,9 75 - 111
10:10 -9,5 -13,1 4,5 NNE 5,6 1045,9 75 - 200
10:15 -9,4 -13,1 9,0 NNE 13,0 1045,9 75 - 144
10:20 -9,4 -13,1 7,6 North 11,1 1045,9 75 - 144
10:25 -9,6 -13,2 10,9 NW 13,0 1045,9 75 - 90
10:30 -9,8 -13,6 5,1 NNE 7,4 1046,3 74 - 83
10:35 -9,9 -13,7 5,6 NNW 7,4 1046,3 74 - 114
10:40 -9,6 -13,2 0,6 ENE 3,7 1046,3 75 - 524
10:45 -9,1 -13,0 4,8 North 8,0 1046,3 73 - 540
10:50 -9,0 -12,9 5,0 North 5,6 1046,3 73 - 237
10:55 -8,9 -12,9 4,5 NNW 9,3 1046,3 73 - 174
11:00 -9,2 -13,3 9,3 North 14,8 1046,3 72 - 120
11:05 -9,4 -13,6 6,6 North 11,1 1046,3 72 - 127
11:10 -9,4 -13,6 5,3 NE 6,4 1045,9 72 - 130
11:15 -9,6 -13,5 1,3 NNE 3,7 1045,9 73 - 190
11:20 -9,5 -13,4 3,2 NE 5,6 1045,6 73 - 323
11:25 -8,7 -12,4 7,9 East 11,3 1045,6 74 - 584
11:30 -8,9 -13,1 5,1 ENE 7,4 1045,6 72 - 209
11:35 -9,1 -13,1 7,4 East 11,1 1045,6 73 - 206
11:40 -9,1 -13,2 6,0 North 9,7 1045,3 72 - 543
11:45 -8,4 -12,3 7,7 North 13,0 1045,3 74 - 533
11:50 -9,0 -13,1 1,6 North 3,7 1045,3 72 - 185
11:55 -9,1 -13,0 6,9 NE 11,1 1045,3 73 - 216
12:00 -9,1 -13,0 5,8 NE 7,4 1044,9 73 - 199
12:05 -9,1 -13,2 2,4 East 3,7 1044,9 72 - 220
12:10 -8,7 -12,6 4,7 NE 5,6 1044,9 73 - 543
12:15 -8,2 -12,3 4,8 East 6,4 1044,9 72 - 610
12:20 -8,2 -12,6 4,8 NE 5,6 1044,9 71 - 628
12:25 -8,2 -12,6 3,1 NE 5,6 1044,6 71 - 635
12:30 -8,1 -12,4 0,2 ESE 1,9 1044,6 71 - 638
12:35 -8,1 -12,6 6,0 NNE 11,1 1044,6 70 - 227
12:40 -8,6 -12,9 3,5 NE 6,4 1044,6 71 - 165
12:45 -8,7 -12,8 3,2 NNE 5,6 1044,2 72 - 155
12:50 -8,9 -13,0 4,2 NNE 5,6 1044,2 72 - 155
12:55 -8,7 -12,6 2,7 NNE 5,6 1044,2 73 - 264
13:00 -8,6 -12,9 4,0 East 5,6 1043,9 71 - 439
13:05 -8,3 -12,8 2,1 East 5,6 1043,9 70 - 429
13:10 -8,3 -12,9 1,1 ESE 3,7 1043,6 69 - 471
13:15 -8,1 -12,7 2,7 SSW 5,6 1043,6 69 - 524
13:20 -7,8 -12,3 4,7 NNE 7,4 1043,6 70 - 482
13:25 -7,8 -12,5 4,2 NE 5,6 1043,6 69 - 513
13:30 -7,7 -12,2 4,3 ENE 5,6 1043,6 70 - 536
13:35 -7,9 -12,4 5,8 NE 7,4 1043,6 70 - 199
13:40 -8,1 -12,4 4,2 NNE 5,6 1043,6 71 - 424
13:45 -8,1 -12,6 5,3 ENE 7,4 1043,6 70 - 199
13:50 -8,2 -12,5 0,3 ENE 1,9 1043,6 71 - 211
13:55 -8,0 -12,5 0,2 East 1,9 1043,2 70 - 394
14:00 -7,7 -12,2 6,0 North 7,4 1043,6 70 - 369
14:05 -7,6 -12,3 6,8 NNW 7,4 1043,2 69 - 362
14:10 -7,7 -12,7 4,0 North 5,6 1043,2 67 - 341
Daily Summary for Friday Jan 17 2020
Time Temp. ( °C ) Dew pt. ( °C ) Wind ( km/h ) from Gust ( km/h ) Pressure ( hPa ) Humid.( % ) Rainrate ( cm ) Solar ( W/m2 )
High-6,4 -10,1 24,6 North ( 345/932 ) 35,2 1046,3 79 - 638
Average-9,1 -12,8 8,7 North #61/171 13,4 1042,9 74 - 237 #79/171
Low-10,4 -13,9 0,2   1,9 1036,1 67 -  
Daily Tabular details for Friday Jan 17 2020
Time Temp. ( °C ) Dew pt. ( °C ) Wind ( km/h ) from Gust ( km/h ) Pressure ( hPa ) Humid.( % ) Rainrate ( cm ) Solar ( W/m2 )
00:00 -6,4 -10,1 10,9 North 19,3 1036,1 75 - -
00:05 -6,4 -10,3 15,9 North 24,1 1036,1 74 - -
00:10 -6,4 -10,5 11,3 NNW 19,3 1036,5 73 - -
00:15 -6,5 -10,6 15,4 North 25,9 1036,8 73 - -
00:20 -6,7 -10,9 19,0 NW 31,5 1036,8 72 - -
00:25 -6,8 -11,1 22,0 North 31,5 1037,1 72 - -
00:30 -7,1 -11,4 24,3 NW 31,5 1036,8 71 - -
00:35 -7,2 -11,6 22,0 NNE 31,5 1037,1 71 - -
00:40 -7,3 -11,4 19,8 NNW 22,2 1037,1 72 - -
00:45 -7,3 -11,5 24,6 NNE 35,2 1037,1 72 - -
00:50 -7,5 -11,8 19,8 North 29,6 1037,5 71 - -
00:55 -7,6 -11,7 18,2 NNW 24,1 1037,5 72 - -
01:00 -7,6 -11,8 20,8 NW 24,1 1037,8 72 - -
01:05 -7,7 -11,8 23,0 NW 31,5 1037,8 72 - -
01:10 -7,7 -11,7 17,9 NW 22,2 1037,8 73 - -
01:15 -7,7 -11,7 7,9 NW 14,8 1038,1 73 - -
01:20 -7,6 -11,4 10,5 North 16,7 1038,1 74 - -
01:25 -7,6 -11,4 17,4 NNE 29,0 1038,5 74 - -
01:30 -7,7 -11,5 11,4 NNE 14,8 1038,5 74 - -
01:35 -7,7 -11,6 17,2 NW 27,8 1038,8 74 - -
01:40 -7,8 -11,5 14,2 NNW 20,4 1038,8 75 - -
01:45 -7,9 -11,6 19,0 NNW 24,1 1038,8 75 - -
01:50 -8,1 -11,7 10,9 NNE 20,4 1039,2 75 - -
01:55 -8,1 -11,9 14,6 NW 18,5 1039,2 74 - -
02:00 -8,3 -12,1 19,2 NNW 29,6 1039,2 74 - -
02:05 -8,3 -12,3 17,1 NNE 22,2 1039,5 73 - -
02:10 -8,4 -12,4 9,3 North 18,5 1039,5 73 - -
02:15 -8,5 -12,5 10,8 NNW 20,4 1039,5 73 - -
02:20 -8,6 -12,6 9,5 NNW 18,5 1039,5 73 - -
02:25 -8,6 -12,6 9,8 North 18,5 1039,8 73 - -
02:30 -8,7 -12,6 4,0 NW 5,6 1039,8 73 - -
02:35 -8,7 -12,6 9,8 NW 16,7 1040,2 73 - -
02:40 -8,7 -12,7 7,9 NNW 9,3 1040,2 73 - -
02:45 -8,7 -12,7 7,2 NW 7,4 1040,5 73 - -
02:50 -8,8 -12,7 6,4 NNE 13,0 1040,5 73 - -
02:55 -8,8 -12,7 6,3 North 8,0 1040,5 73 - -
03:00 -8,8 -12,7 15,4 North 20,4 1040,5 73 - -
03:05 -8,8 -12,8 8,2 WNW 14,8 1040,5 73 - -
03:10 -8,9 -12,8 10,6 North 18,5 1040,5 73 - -
03:15 -8,9 -12,9 16,7 NNW 20,4 1040,5 73 - -
03:20 -9,0 -12,9 6,4 NNW 9,7 1040,9 73 - -
03:25 -9,0 -12,9 7,1 NW 13,0 1040,9 73 - -
03:30 -9,1 -13,0 11,1 NW 20,4 1040,9 73 - -
03:35 -9,1 -13,1 11,6 NNE 16,7 1040,9 73 - -
03:40 -9,2 -13,1 10,9 North 18,5 1041,2 73 - -
03:45 -9,2 -13,0 15,3 North 18,5 1041,2 74 - -
03:50 -9,3 -13,1 7,2 North 14,5 1041,2 74 - -
03:55 -9,3 -13,1 6,8 NNW 13,0 1041,2 74 - -
04:00 -9,4 -13,2 7,2 NNW 9,3 1041,2 74 - -
04:05 -9,4 -13,1 9,8 North 14,8 1041,2 75 - -
04:10 -9,5 -13,1 10,0 North 13,0 1041,2 75 - -
04:15 -9,5 -13,1 1,8 NNW 5,6 1041,5 75 - -
04:20 -9,6 -13,2 5,5 NNW 7,4 1041,5 75 - -
04:25 -9,6 -13,0 9,5 North 14,8 1041,5 76 - -
04:30 -9,6 -13,0 6,1 NW 7,4 1041,9 76 - -
04:35 -9,6 -13,0 6,1 North 7,4 1041,9 76 - -
04:40 -9,6 -13,0 6,6 North 7,4 1041,9 76 - -
04:45 -9,6 -12,8 7,2 North 13,0 1041,9 77 - -
04:50 -9,6 -12,8 6,8 NNW 9,7 1041,9 77 - -
04:55 -9,6 -12,8 2,6 NNE 3,7 1041,9 77 - -
05:00 -9,6 -12,8 5,0 NNE 8,0 1041,9 77 - -
05:05 -9,6 -12,8 5,5 North 7,4 1041,9 77 - -
05:10 -9,6 -12,9 8,4 NNW 13,0 1042,2 77 - -
05:15 -9,6 -12,7 4,8 NNE 7,4 1042,2 78 - -
05:20 -9,6 -12,7 5,8 NNE 7,4 1042,2 78 - -
05:25 -9,6 -12,7 5,6 NNE 7,4 1042,2 78 - -
05:30 -9,7 -12,8 6,1 NNE 11,1 1042,2 78 - -
05:35 -9,7 -12,8 2,4 North 3,7 1042,2 78 - -
05:40 -9,7 -12,8 9,2 North 14,8 1042,5 78 - -
05:45 -9,7 -12,8 8,7 North 14,8 1042,5 78 - -
05:50 -9,7 -12,7 13,7 North 20,4 1042,9 79 - -
05:55 -9,7 -12,8 6,0 North 9,3 1042,9 78 - -
06:00 -9,7 -12,8 9,0 North 14,8 1043,2 78 - -
06:05 -9,7 -12,8 10,9 North 19,3 1043,2 78 - -
06:10 -9,7 -12,8 14,6 North 18,5 1043,2 78 - -
06:15 -9,7 -12,9 9,3 NE 16,7 1043,2 77 - -
06:20 -9,7 -13,0 9,5 North 14,8 1043,6 77 - -
06:25 -9,8 -13,1 8,7 North 13,0 1043,6 77 - -
06:30 -9,8 -13,1 10,8 NNE 16,7 1043,9 77 - -
06:35 -9,8 -13,1 7,1 North 11,1 1043,9 77 - -
06:40 -9,9 -13,2 7,7 North 13,0 1043,9 77 - -
06:45 -9,9 -13,2 9,2 NNW 13,0 1044,2 77 - -
06:50 -9,9 -13,2 12,9 North 22,2 1044,2 77 - -
06:55 -10,0 -13,3 6,1 North 9,3 1044,2 77 - -
07:00 -10,1 -13,3 12,1 NNW 18,5 1044,2 77 - -
07:05 -10,1 -13,4 9,3 North 13,0 1044,6 77 - -
07:10 -10,1 -13,4 4,5 North 7,4 1044,6 77 - -
07:15 -10,2 -13,4 9,2 NNW 13,0 1044,6 77 - -
07:20 -10,2 -13,4 5,6 North 7,4 1044,6 77 - -
07:25 -10,2 -13,3 6,3 North 13,0 1044,6 78 - -
07:30 -10,2 -13,3 8,2 NNW 9,3 1044,9 78 - -
07:35 -10,2 -13,3 6,6 North 12,9 1044,9 78 - -
07:40 -10,2 -13,3 12,9 NNE 20,4 1044,9 78 - 5
07:45 -10,2 -13,3 6,4 North 18,5 1044,9 78 - 5
07:50 -10,2 -13,3 16,4 NW 18,5 1044,9 78 - 7
07:55 -10,3 -13,6 16,4 North 25,9 1044,9 77 - 11
08:00 -10,3 -13,6 6,4 North 13,0 1044,9 77 - 14
08:05 -10,3 -13,6 11,3 NW 18,5 1045,3 77 - 18
08:10 -10,4 -13,8 13,0 NNW 27,8 1045,3 76 - 26
08:15 -10,4 -13,8 17,2 North 22,2 1045,3 76 - 21
08:20 -10,4 -13,8 13,5 NNE 18,5 1045,3 76 - 25
08:25 -10,4 -13,9 12,1 North 16,7 1045,3 76 - 84
08:30 -10,3 -13,8 13,5 NE 18,5 1045,3 76 - 100
08:35 -10,3 -13,7 6,3 NE 11,1 1045,3 76 - 118
08:40 -10,2 -13,7 9,2 NE 14,8 1045,3 76 - 141
08:45 -10,1 -13,5 6,9 North 13,0 1045,3 76 - 123
08:50 -10,0 -13,4 7,4 NNE 13,0 1045,3 76 - 172
08:55 -9,9 -13,4 8,7 North 13,0 1045,3 76 - 216
09:00 -9,9 -13,4 12,2 NNW 20,9 1045,6 76 - 90
09:05 -9,9 -13,3 5,1 NNE 9,3 1045,6 76 - 179
09:10 -9,9 -13,3 8,2 NW 13,0 1045,6 76 - 109
09:15 -9,9 -13,4 9,3 North 16,7 1045,6 76 - 206
09:20 -9,9 -13,3 8,9 NW 14,8 1045,6 76 - 109
09:25 -9,9 -13,4 9,8 North 14,8 1045,6 76 - 134
09:30 -9,8 -13,3 3,9 NNE 7,4 1045,6 76 - 104
09:35 -9,7 -13,0 5,6 NNW 7,4 1045,6 77 - 132
09:40 -9,7 -13,0 10,1 WNW 14,8 1045,6 77 - 105
09:45 -9,8 -13,3 3,4 NW 5,6 1045,6 76 - 76
09:50 -9,9 -13,4 7,2 NNW 11,1 1045,9 76 - 67
09:55 -10,1 -13,5 9,8 NNW 16,7 1045,9 76 - 67
10:00 -10,1 -13,7 4,2 North 5,6 1045,9 75 - 181
10:05 -9,8 -13,4 5,6 North 7,4 1045,9 75 - 111
10:10 -9,5 -13,1 4,5 NNE 5,6 1045,9 75 - 200
10:15 -9,4 -13,1 9,0 NNE 13,0 1045,9 75 - 144
10:20 -9,4 -13,1 7,6 North 11,1 1045,9 75 - 144
10:25 -9,6 -13,2 10,9 NW 13,0 1045,9 75 - 90
10:30 -9,8 -13,6 5,1 NNE 7,4 1046,3 74 - 83
10:35 -9,9 -13,7 5,6 NNW 7,4 1046,3 74 - 114
10:40 -9,6 -13,2 0,6 ENE 3,7 1046,3 75 - 524
10:45 -9,1 -13,0 4,8 North 8,0 1046,3 73 - 540
10:50 -9,0 -12,9 5,0 North 5,6 1046,3 73 - 237
10:55 -8,9 -12,9 4,5 NNW 9,3 1046,3 73 - 174
11:00 -9,2 -13,3 9,3 North 14,8 1046,3 72 - 120
11:05 -9,4 -13,6 6,6 North 11,1 1046,3 72 - 127
11:10 -9,4 -13,6 5,3 NE 6,4 1045,9 72 - 130
11:15 -9,6 -13,5 1,3 NNE 3,7 1045,9 73 - 190
11:20 -9,5 -13,4 3,2 NE 5,6 1045,6 73 - 323
11:25 -8,7 -12,4 7,9 East 11,3 1045,6 74 - 584
11:30 -8,9 -13,1 5,1 ENE 7,4 1045,6 72 - 209
11:35 -9,1 -13,1 7,4 East 11,1 1045,6 73 - 206
11:40 -9,1 -13,2 6,0 North 9,7 1045,3 72 - 543
11:45 -8,4 -12,3 7,7 North 13,0 1045,3 74 - 533
11:50 -9,0 -13,1 1,6 North 3,7 1045,3 72 - 185
11:55 -9,1 -13,0 6,9 NE 11,1 1045,3 73 - 216
12:00 -9,1 -13,0 5,8 NE 7,4 1044,9 73 - 199
12:05 -9,1 -13,2 2,4 East 3,7 1044,9 72 - 220
12:10 -8,7 -12,6 4,7 NE 5,6 1044,9 73 - 543
12:15 -8,2 -12,3 4,8 East 6,4 1044,9 72 - 610
12:20 -8,2 -12,6 4,8 NE 5,6 1044,9 71 - 628
12:25 -8,2 -12,6 3,1 NE 5,6 1044,6 71 - 635
12:30 -8,1 -12,4 0,2 ESE 1,9 1044,6 71 - 638
12:35 -8,1 -12,6 6,0 NNE 11,1 1044,6 70 - 227
12:40 -8,6 -12,9 3,5 NE 6,4 1044,6 71 - 165
12:45 -8,7 -12,8 3,2 NNE 5,6 1044,2 72 - 155
12:50 -8,9 -13,0 4,2 NNE 5,6 1044,2 72 - 155
12:55 -8,7 -12,6 2,7 NNE 5,6 1044,2 73 - 264
13:00 -8,6 -12,9 4,0 East 5,6 1043,9 71 - 439
13:05 -8,3 -12,8 2,1 East 5,6 1043,9 70 - 429
13:10 -8,3 -12,9 1,1 ESE 3,7 1043,6 69 - 471
13:15 -8,1 -12,7 2,7 SSW 5,6 1043,6 69 - 524
13:20 -7,8 -12,3 4,7 NNE 7,4 1043,6 70 - 482
13:25 -7,8 -12,5 4,2 NE 5,6 1043,6 69 - 513
13:30 -7,7 -12,2 4,3 ENE 5,6 1043,6 70 - 536
13:35 -7,9 -12,4 5,8 NE 7,4 1043,6 70 - 199
13:40 -8,1 -12,4 4,2 NNE 5,6 1043,6 71 - 424
13:45 -8,1 -12,6 5,3 ENE 7,4 1043,6 70 - 199
13:50 -8,2 -12,5 0,3 ENE 1,9 1043,6 71 - 211
13:55 -8,0 -12,5 0,2 East 1,9 1043,2 70 - 394
14:00 -7,7 -12,2 6,0 North 7,4 1043,6 70 - 369
14:05 -7,6 -12,3 6,8 NNW 7,4 1043,2 69 - 362
14:10 -7,7 -12,7 4,0 North 5,6 1043,2 67 - 341

Download your copy of this data-set  here

Our weather-data as stored at Weather Underground. Script developed by Jim McMurry. Adapted for the template by Leuven-Template.eu